Fish Lake Valley, Nevada Weather observations

Data are for 10 minute period ending at time listed.
 Day   Time    Ave.   Ave.  Ave.  Vector   Max.   Stn.    Total    Solar   Ave.  
  of    of     Air    Rel.  Wind   Wind    Wind   Baro.  Precip.   Rad.    Soil  
Year   Day     Temp.  Hum.  Speed  Dir.    Gust   Pres.                    Temp. 
2016   (PST)    F      %     mph   deg.    mph     mb.     in.     W/m2     F    
--------------------------------------------------------------------------------- 
 177   14:50   89.5    16    4.1   342      8.2   853.3    0.00     849    75.8  
 177   15:00   88.9    15    5.9    29      9.9   853.2    0.00     822    75.8  
 177   15:10   90.5    12    2.8    20      5.3   853.1    0.00     796    76.0  
 177   15:20   92.6    12    2.4   161      4.8   853.0    0.00     768    76.1  
 177   15:30   93.2    10    1.8    46      5.5   852.9    0.00     740    76.2  
 177   15:40   93.0    14    2.7   244      5.7   852.8    0.00     711    76.4  
 177   15:50   93.4    19    2.5   183      3.9   852.7    0.00     678    76.6  
 177   16:00   92.8    10    1.8    69      4.4   852.6    0.00     647    76.7  
 177   16:10   94.3    11    0.8    90      2.4   852.5    0.00     614    76.8  
 177   16:20   92.7    12    1.6    90      4.7   852.4    0.00     580    77.0  
 177   16:30   93.1    12    2.0   355      3.5   852.3    0.00     546    77.1  
 177   16:40   93.8    13    2.4   326      5.9   852.2    0.00     513    77.3  
 177   16:50   91.7    16    2.6    30      6.2   852.1    0.00     476    77.4  
 177   17:00   89.3    21    4.1   354      9.8   852.1    0.00     440    77.6  
 177   17:10   89.5    18    4.1   353      6.4   852.0    0.00     406    77.7  
 177   17:20   87.4    25    4.9   348      7.2   852.0    0.00     371    77.9  
 177   17:30   86.1    27    4.4   352      6.2   852.0    0.00     336    78.1  
 177   17:40   86.4    25    5.0   350      7.3   852.0    0.00     301    78.3  
 177   17:50   85.0    26    5.3   348      8.4   852.0    0.00     267    78.4  
 177   18:00   84.1    29    5.3   344      7.0   852.1    0.00     233    78.6  
 177   18:10   82.7    31    4.9   336      6.2   852.1    0.00     200    78.8  
 177   18:20   82.9    27    5.1   324      6.6   852.1    0.00     169    79.0  
 177   18:30   82.1    26    5.7   322      6.8   852.1    0.00     138    79.2  
 177   18:40   80.7    26    5.9   322      6.8   852.1    0.00     107    79.3  
 177   18:50   81.3    22    5.6   315      6.4   852.1    0.00      70    79.5  
 177   19:00   82.0    18    5.7   308      6.7   852.2    0.00      19    79.6  
 177   19:10   82.5    14    5.0   286      6.3   852.2    0.00      12    79.8  
 177   19:20   80.9    13    5.0   267      6.5   852.3    0.00       8    80.0  
 177   19:30   81.0    12    5.6   272      8.0   852.4    0.00       5    80.1  
 177   19:40   80.7    12    4.9   262      7.2   852.5    0.00       3    80.2  
 177   19:50   79.8    13    4.3   256      6.4   852.5    0.00       3    80.3  
 177   20:00   76.0    17    3.1   256      4.5   852.6    0.00       2    80.4  
 177   20:10   72.8    25    3.1    29      5.5   852.7    0.00       2    80.6  
 177   20:20   71.9    26    2.5    28      4.3   852.9    0.00       2    80.7  
 177   20:30   71.2    26    2.3   357      3.2   853.1    0.00       2    80.9  
 177   20:40   71.2    24    3.4   315      4.3   853.2    0.00       2    81.0  
 177   20:50   72.1    21    3.5   294      4.1   853.3    0.00       2    81.1  
 177   21:00   71.8    20    3.4   282      4.1   853.4    0.00       2    81.2  
 177   21:10   70.9    19    4.5   276      6.2   853.5    0.00       2    81.3  
 177   21:20   73.6    15    7.4   272     13.1   853.5    0.00       2    81.3  
 177   21:30   77.4    12   12.3   292     15.5   853.6    0.00       2    81.3  
 177   21:40   76.8    13   12.8   294     15.8   853.7    0.00       2    81.3  
 177   21:50   76.7    12   12.1   283     16.6   853.9    0.00       2    81.3  
 177   22:00   76.5    12   10.8   281     14.4   854.1    0.00       2    81.3  
 177   22:10   77.0    12    9.6   284     13.5   854.2    0.00       2    81.3  
 177   22:20   76.2    13    9.8   292     13.2   854.3    0.00       2    81.3  
 177   22:30   74.8    16    6.5   320     10.1   854.4    0.00       2    81.4  
 177   22:40   68.6    26    1.9   108      4.1   854.4    0.00       2    81.4  
 177   22:50   67.5    25    2.2   306      5.3   854.5    0.00       2    81.4  
 177   23:00   67.8    26    0.9   354      3.0   854.5    0.00       2    81.4  
 177   23:10   66.0    25    3.0   343      7.1   854.5    0.00       2    81.4  
 177   23:20   70.3    17    5.8   305      8.4   854.6    0.00       2    81.4  
 177   23:30   65.4    26    3.7     8      5.7   854.7    0.00       2    81.4  
 177   23:40   62.1    32    3.5     4      4.3   854.8    0.00       2    81.4  
 177   23:50   62.2    32    3.2   344      3.6   854.8    0.00       2    81.4  
 178    0:00   62.4    29    2.7   310      4.1   854.8    0.00       2    81.4  
 178    0:10   62.7    28    3.2   327      4.6   854.8    0.00       2    81.4  
 178    0:20   60.7    34    3.9     8      4.7   854.9    0.00       2    81.4  
 178    0:30   59.2    39    4.5   347      6.6   855.1    0.00       2    81.4  
 178    0:40   58.8    40    4.4   321      6.6   855.1    0.00       2    81.4  
 178    0:50   57.2    43    2.0   158      5.0   854.9    0.00       2    81.3  
 178    1:00   57.7    39    1.6   171      2.9   854.8    0.00       2    81.3  
 178    1:10   57.8    35    2.1   190      2.7   854.9    0.00       2    81.3  
 178    1:20   57.4    40    2.6   180      4.2   854.9    0.00       2    81.2  
 178    1:30   52.0    61    2.9   120      4.7   854.9    0.00       2    81.2  
 178    1:40   54.9    41    1.1   275      3.3   854.9    0.00       2    81.1  
 178    1:50   56.3    44    3.8   232      5.3   855.1    0.00       2    81.1  
 178    2:00   52.7    49    4.9   228      5.9   855.1    0.00       2    81.0  
 178    2:10   54.3    43    2.9   127      5.7   855.4    0.00       2    81.0  
 178    2:20   52.5    55    3.5   105      4.1   855.4    0.00       2    80.9  
 178    2:30   50.7    62    3.8   126      4.4   855.4    0.00       2    80.9  
 178    2:40   48.5    63    3.8   164      4.9   855.5    0.00       2    80.8  
 178    2:50   48.5    59    3.7   168      5.7   855.7    0.00       2    80.8  
 178    3:00   49.0    60    2.8   168      4.7   855.8    0.00       2    80.7  
 178    3:10   46.5    76    3.5   184      4.3   855.8    0.00       2    80.7  
 178    3:20   50.7    48    3.2   218      4.4   855.7    0.00       2    80.6  
 178    3:30   47.9    63    5.0   103      7.2   855.7    0.00       2    80.5  
 178    3:40   47.1    66    3.7   132      4.3   855.8    0.00       2    80.5  
 178    3:50   45.6    72    4.5   180      6.3   856.0    0.00       2    80.4  
 178    4:00   45.5    68    4.9   185      6.5   856.0    0.00       2    80.3  
 178    4:10   48.3    54    5.7   187      6.9   855.8    0.00       2    80.3  
 178    4:20   48.0    59    2.3   147      3.8   855.8    0.00       3    80.2  
 178    4:30   48.1    60    4.0   131      5.2   855.9    0.00       5    80.1  
 178    4:40   46.0    68    4.3   113      5.9   855.9    0.00       8    80.0  
 178    4:50   45.3    69    4.0   113      5.2   856.0    0.00      14    79.9  
 178    5:00   45.0    71    4.1   134      5.4   856.0    0.00      20    79.8  
 178    5:10   44.9    75    4.1   125      5.5   856.1    0.00      29    79.7  
 178    5:20   45.7    76    3.3   143      5.3   856.3    0.00      91    79.6  
 178    5:30   48.8    65    3.5   134      4.4   856.4    0.00     133    79.5  
 178    5:40   52.0    61    3.2   119      4.2   856.4    0.00     164    79.4  
 178    5:50   53.7    59    3.2   101      4.3   856.4    0.00     197    79.3  
 178    6:00   55.3    63    2.6   132      4.4   856.5    0.00     232    79.2  
 178    6:10   58.6    63    2.4   184      3.6   856.6    0.00     267    79.1  
 178    6:20   61.6    53    3.0   174      3.8   856.6    0.00     300    79.1  
 178    6:30   65.0    46    1.1   116      1.8   856.7    0.00     333    79.0  
 178    6:40   68.8    44    0.0     0      0.0   856.7    0.00     366    78.9  
 178    6:50   70.6    35    0.5    66      1.4   856.8    0.00     400    78.8  
 178    7:00   71.6    27    1.1    32      2.0   856.8    0.00     436    78.7  
 178    7:10   72.6    28    1.2     3      2.1   856.8    0.00     472    78.6  
 178    7:20   71.8    29    2.1     1      2.8   856.7    0.00     507    78.5  
 178    7:30   71.0    36    3.0    11      4.1   856.7    0.00     541    78.4  
 178    7:40   70.9    34    3.5   349      4.4   856.7    0.00     575    78.3  
 178    7:50   72.4    28    3.3   348      4.2   856.7    0.00     609    78.2  
 178    8:00   73.6    31    3.3   356      4.6   856.6    0.00     641    78.1  
 178    8:10   74.9    27    3.3   345      4.2   856.6    0.00     672    78.0  
 178    8:20   75.6    27    4.7   340      7.1   856.5    0.00     703    78.0  
 178    8:30   76.0    32    4.3     0      6.4   856.4    0.00     733    77.8  
 178    8:40   76.9    28    4.6   329      6.5   856.3    0.00     762    77.8  
 178    8:50   77.7    27    5.3   328      7.6   856.2    0.00     792    77.7  
 178    9:00   78.1    27    5.7   333      9.0   856.1    0.00     821    77.6  
 178    9:10   79.6    24    5.2   328      7.3   856.1    0.00     846    77.5  
 178    9:20   80.7    25    5.2   338      8.4   856.1    0.00     870    77.4  
 178    9:30   81.6    25    4.9   334      7.1   856.1    0.00     893    77.3  
 178    9:40   82.4    21    5.6   331      7.7   856.0    0.00     916    77.2  
 178    9:50   83.4    20    4.6   338      7.5   855.9    0.00     936    77.1  
 178   10:00   84.2    20    4.5   357      6.9   855.8    0.00     954    77.1  
 178   10:10   85.2    18    4.3   352      5.9   855.8    0.00     968    77.0  
 178   10:20   86.5    15    3.0   331      4.6   855.7    0.00     987    76.9  
 178   10:30   88.8    12    2.4   312      4.9   855.6    0.00     998    76.8  
 178   10:40   88.7    12    3.5   323      7.5   855.5    0.00    1006    76.7  
 178   10:50   90.2    13    1.8   128      3.8   855.4    0.00    1011    76.7  
 178   11:00   92.0    12    1.3   111      2.8   855.2    0.00    1028    76.6  
 178   11:10   91.6    14    3.5    64      8.6   855.1    0.00    1041    76.6  
 178   11:20   87.0    24    8.7   131     14.4   855.0    0.00    1051    76.6  
 178   11:30   84.8    27   10.0   133     16.2   854.8    0.00    1058    76.5  
 178   11:40   84.4    26   11.1   122     15.6   854.7    0.00    1062    76.5  
 178   11:50   84.9    24   12.5   130     20.1   854.7    0.00    1061    76.5  
 178   12:00   85.5    20   13.8   137     19.0   854.6    0.00    1063    76.5  
 178   12:10   85.7    22   12.7   138     18.4   854.5    0.00    1060    76.5  
 178   12:20   85.7    22   12.2   142     18.7   854.5    0.00    1055    76.5  
 178   12:30   86.1    21   12.1   129     16.9   854.4    0.00    1053    76.6  
 178   12:40   86.5    22   11.6   133     19.0   854.3    0.00    1048    76.5  
 178   12:50   86.8    22   10.4   140     16.3   854.2    0.00    1043    76.5  
 178   13:00   87.5    22    9.4   118     14.4   854.1    0.00    1034    76.5  
 178   13:10   87.5    21   11.1   126     18.0   854.0    0.00    1022    76.5  
 178   13:20   87.9    21   11.0   129     17.3   853.9    0.00    1010    76.5  
 178   13:30   87.7    23   10.6   121     17.1   853.8    0.00     996    76.5  
 178   13:40   87.7    22   10.3   125     18.5   853.7    0.00     980    76.6  
 178   13:50   87.8    23    9.1   122     13.8   853.6    0.00     964    76.6  
 178   14:00   88.3    22    9.9   123     14.3   853.5    0.00     945    76.6  
 178   14:10   88.4    22    9.9   120     14.9   853.4    0.00     926    76.6  
 178   14:20   88.2    20   12.6   121     18.7   853.3    0.00     910    76.7  
 178   14:30   88.0    23    9.7   115     15.5   853.2    0.00     878    76.7  
 178   14:40   88.5    22   10.5   118     17.0   853.0    0.00     879    76.8  

Return to Fish Lake Valley, Nevada graphs page.


Western Regional Climate Center,wrcc@dri.edu